Time;durP1;ratioP1;P1;durP2;ratioP2;P2;SDS_P1;SDS_P2;PMS_P1;PMS_P2;Temp;Humidity;BMP_temperature;BMP_pressure;BME280_temperature;BME280_humidity;BME280_pressure;Samples;Min_cycle;Max_cycle;Signal;HPM_P1;HPM_P2
2022/04/18 00:00:44;;;;;;;;;1.50;1.50;;;;;18.88;26.93;101209.38;2104758;28;47764;-59
2022/04/18 00:01:45;;;;;;;;;2.00;0.00;;;;;18.88;27.07;101211.19;2104322;28;47981;-60
2022/04/18 00:02:45;;;;;;;;;1.33;1.33;;;;;18.87;27.05;101214.81;2104470;28;47574;-60
2022/04/18 00:03:46;;;;;;;;;0.00;0.00;;;;;18.87;26.78;101209.44;2104594;28;47654;-58
2022/04/18 00:04:46;;;;;;;;;1.00;1.00;;;;;18.86;26.76;101210.41;2100909;28;46008;-60
2022/04/18 00:05:47;;;;;;;;;1.00;1.00;;;;;18.85;27.03;101214.03;2095406;28;48418;-59
2022/04/18 00:06:47;;;;;;;;;3.00;1.67;;;;;18.84;26.98;101213.16;2095849;28;47345;-59
2022/04/18 00:07:48;;;;;;;;;2.33;2.33;;;;;18.84;27.03;101214.97;2094420;28;47624;-59
2022/04/18 00:08:48;;;;;;;;;1.33;1.33;;;;;18.83;26.95;101213.25;2095275;28;47034;-60
2022/04/18 00:09:48;;;;;;;;;2.00;2.00;;;;;18.82;26.59;101212.38;2104972;28;47712;-57
2022/04/18 00:10:49;;;;;;;;;0.67;0.67;;;;;18.82;26.86;101207.00;2104390;28;48314;-58
2022/04/18 00:11:49;;;;;;;;;2.00;2.00;;;;;18.82;26.89;101201.63;2104525;28;47406;-58
2022/04/18 00:12:50;;;;;;;;;1.00;1.00;;;;;18.80;26.83;101207.06;2096749;28;47776;-56
2022/04/18 00:13:50;;;;;;;;;0.33;0.33;;;;;18.79;27.11;101202.59;2099336;28;47688;-60
2022/04/18 00:14:50;;;;;;;;;2.33;2.33;;;;;18.79;26.83;101207.13;2077664;28;47440;-60
2022/04/18 00:15:51;;;;;;;;;1.00;1.00;;;;;18.78;26.96;101200.88;2085163;28;48042;-60
2022/04/18 00:16:51;;;;;;;;;3.00;3.00;;;;;18.76;27.07;101199.19;2104294;28;47762;-59
2022/04/18 00:17:52;;;;;;;;;1.33;1.33;;;;;18.75;27.03;101192.94;2104410;28;48117;-59
2022/04/18 00:18:52;;;;;;;;;2.00;2.00;;;;;18.73;26.81;101194.84;2103924;28;47419;-61
2022/04/18 00:19:54;;;;;;;;;1.00;1.00;;;;;18.73;27.05;101194.84;2104438;28;47686;-59
2022/04/18 00:20:54;;;;;;;;;2.00;2.00;;;;;18.73;27.15;101186.78;2104657;28;48050;-60
2022/04/18 00:21:55;;;;;;;;;2.00;0.00;;;;;18.72;27.12;101190.41;2104399;28;47966;-59
2022/04/18 00:22:55;;;;;;;;;1.67;1.67;;;;;18.72;27.14;101190.41;2104113;28;47765;-57
2022/04/18 00:23:55;;;;;;;;;3.00;3.00;;;;;18.71;27.11;101186.00;2096975;28;48050;-58
2022/04/18 00:24:56;;;;;;;;;2.00;2.00;;;;;18.71;27.27;101193.19;2103681;28;47543;-59
2022/04/18 00:25:56;;;;;;;;;1.00;1.00;;;;;18.70;27.18;101192.31;2102834;27;47443;-59
2022/04/18 00:26:57;;;;;;;;;2.00;1.00;;;;;18.69;27.07;101187.03;2104395;28;47727;-58
2022/04/18 00:27:57;;;;;;;;;1.67;1.67;;;;;18.70;27.11;101188.75;2104497;28;47301;-58
2022/04/18 00:28:57;;;;;;;;;2.33;2.00;;;;;18.68;27.20;101182.59;2104154;28;47891;-58
2022/04/18 00:29:58;;;;;;;;;3.00;1.33;;;;;18.68;27.02;101193.34;2104559;28;47304;-59
2022/04/18 00:30:58;;;;;;;;;1.00;1.00;;;;;18.67;27.14;101184.38;2102753;28;47313;-60
2022/04/18 00:31:59;;;;;;;;;2.00;1.00;;;;;18.67;27.22;101183.50;2104392;28;48297;-59
2022/04/18 00:33:00;;;;;;;;;3.50;2.75;;;;;18.67;27.20;101183.50;2104444;28;47791;-58
2022/04/18 00:34:00;;;;;;;;;2.00;2.00;;;;;18.65;26.94;101180.03;2104130;28;47820;-57
2022/04/18 00:35:02;;;;;;;;;1.67;1.67;;;;;18.64;26.85;101178.28;2104553;28;47558;-57
2022/04/18 00:36:03;;;;;;;;;0.00;0.00;;;;;18.63;27.19;101174.69;2095296;28;47695;-59
2022/04/18 00:37:04;;;;;;;;;1.00;1.00;;;;;18.62;27.02;101175.63;2093698;28;47709;-58
2022/04/18 00:38:04;;;;;;;;;1.00;1.00;;;;;18.62;27.02;101174.78;2086255;28;47732;-59
2022/04/18 00:39:05;;;;;;;;;1.33;1.00;;;;;18.61;27.07;101175.72;2086208;28;47446;-58
2022/04/18 00:40:07;;;;;;;;;1.33;1.33;;;;;18.60;26.87;101172.16;2104395;28;48002;-60
2022/04/18 00:41:07;;;;;;;;;1.75;1.75;;;;;18.59;26.95;101169.53;2108138;27;47637;-58
2022/04/18 00:42:07;;;;;;;;;4.00;3.00;;;;;18.58;26.86;101166.00;2108377;27;47784;-58
2022/04/18 00:43:08;;;;;;;;;3.67;2.67;;;;;18.57;26.54;101175.00;2104178;28;47220;-58
2022/04/18 00:44:08;;;;;;;;;0.00;0.00;;;;;18.56;26.90;101170.56;2096068;28;46756;-57
2022/04/18 00:45:09;;;;;;;;;1.67;1.67;;;;;18.53;26.92;101166.19;2095624;28;47440;-58
2022/04/18 00:46:11;;;;;;;;;1.67;1.67;;;;;18.54;26.76;101169.75;2095694;28;47720;-59
2022/04/18 00:47:11;;;;;;;;;1.75;1.75;;;;;18.54;26.84;101172.44;2098175;28;47697;-58
2022/04/18 00:48:12;;;;;;;;;1.00;1.00;;;;;18.53;26.92;101162.63;2104288;28;47598;-58
2022/04/18 00:49:12;;;;;;;;;2.00;2.00;;;;;18.53;26.83;101159.94;2104274;28;47978;-59
2022/04/18 00:50:13;;;;;;;;;1.33;1.33;;;;;18.52;27.11;101161.75;2081334;28;47550;-58
2022/04/18 00:51:15;;;;;;;;;2.67;2.67;;;;;18.53;27.01;101159.94;2078070;28;47803;-57
2022/04/18 00:52:16;;;;;;;;;2.00;2.00;;;;;18.52;26.84;101161.75;2095545;28;48215;-58
2022/04/18 00:53:18;;;;;;;;;3.33;2.33;;;;;18.51;26.94;101160.00;2099826;28;47526;-58
2022/04/18 00:54:18;;;;;;;;;1.50;1.50;;;;;18.50;27.00;101152.91;2105877;27;47766;-60
2022/04/18 00:55:20;;;;;;;;;1.00;1.00;;;;;18.51;27.07;101159.16;2106968;27;47513;-59
2022/04/18 00:56:21;;;;;;;;;2.00;2.00;;;;;18.49;26.85;101153.84;2105208;28;47475;-59
2022/04/18 00:57:24;;;;;;;;;3.00;3.00;;;;;18.50;27.07;101158.28;2105486;28;47674;-59
2022/04/18 00:58:24;;;;;;;;;1.75;1.75;;;;;18.49;26.98;101148.47;2105361;28;47688;-59
2022/04/18 00:59:26;;;;;;;;;1.33;1.33;;;;;18.49;26.99;101152.97;2105496;28;47540;-60
2022/04/18 01:00:27;;;;;;;;;2.25;1.25;;;;;18.49;26.82;101153.84;2105348;28;48066;-59
2022/04/18 01:01:27;;;;;;;;;1.00;1.00;;;;;18.49;26.92;101155.66;2105576;28;48077;-57
2022/04/18 01:02:28;;;;;;;;;1.67;1.67;;;;;18.49;26.86;101161.91;2105883;28;47850;-58
2022/04/18 01:03:30;;;;;;;;;1.00;1.00;;;;;18.47;27.03;101153.06;2105575;28;47830;-59
2022/04/18 01:04:31;;;;;;;;;1.50;1.50;;;;;18.46;27.06;101159.38;2105678;27;47427;-59
2022/04/18 01:05:32;;;;;;;;;2.00;2.00;;;;;18.44;26.85;101158.59;2101067;27;48088;-58
2022/04/18 01:06:33;;;;;;;;;2.00;2.00;;;;;18.44;27.09;101155.03;2104686;28;47594;-59
2022/04/18 01:07:35;;;;;;;;;2.00;2.00;;;;;18.43;27.45;101161.34;2096655;28;47924;-57
2022/04/18 01:08:36;;;;;;;;;0.50;0.50;;;;;18.43;27.08;101155.97;2096518;28;47918;-59
2022/04/18 01:09:37;;;;;;;;;3.25;1.75;;;;;18.43;27.01;101155.97;2096829;28;47551;-58
2022/04/18 01:10:38;;;;;;;;;2.00;2.00;;;;;18.43;27.07;101151.47;2096320;28;48281;-60
2022/04/18 01:11:38;;;;;;;;;0.00;0.00;;;;;18.44;27.11;101158.59;2105436;28;47660;-59
2022/04/18 01:12:41;;;;;;;;;1.00;1.00;;;;;18.44;27.24;101157.72;2081370;28;47809;-58
2022/04/18 01:13:47;;;;;;;;;3.00;3.00;;;;;18.44;27.29;101160.41;2086634;28;47670;-58
2022/04/18 01:14:49;;;;;;;;;1.50;1.50;;;;;18.43;27.11;101155.97;2100219;28;47744;-58
2022/04/18 01:15:56;;;;;;;;;1.00;1.00;;;;;18.42;27.07;101160.47;2105928;28;47683;-58
2022/04/18 01:16:57;;;;;;;;;1.75;1.75;;;;;18.40;27.17;101156.97;2105078;28;47424;-58
2022/04/18 01:17:57;;;;;;;;;2.00;2.00;;;;;18.41;27.03;101160.50;2105844;28;47535;-59
2022/04/18 01:18:57;;;;;;;;;2.00;2.00;;;;;18.40;27.13;101162.34;2104927;27;47511;-59
2022/04/18 01:19:58;;;;;;;;;3.00;3.00;;;;;18.39;27.29;101151.66;2105564;28;47491;-59
2022/04/18 01:20:58;;;;;;;;;1.00;1.00;;;;;18.40;26.90;101156.09;2105908;28;47628;-59
2022/04/18 01:21:59;;;;;;;;;2.00;2.00;;;;;18.39;26.98;101160.59;2105452;28;48164;-58
2022/04/18 01:23:00;;;;;;;;;1.00;1.00;;;;;18.39;27.38;101157.91;2105402;28;47747;-59
2022/04/18 01:28:58;;;;;;;;;3.25;2.75;;;;;18.38;27.34;101156.16;2105485;27;47861;-59
2022/04/18 01:29:22;;;;;;;;;2.50;2.50;;;;;18.33;27.19;101154.66;2105129;28;47994;-58
2022/04/18 01:30:22;;;;;;;;;1.00;1.00;;;;;18.32;27.34;101152.91;2105682;28;47566;-58
2022/04/18 01:31:22;;;;;;;;;2.00;2.00;;;;;18.32;27.41;101161.84;2105320;28;46238;-59
2022/04/18 01:32:23;;;;;;;;;2.33;2.33;;;;;18.31;27.27;101151.16;2105288;28;47958;-60
2022/04/18 01:33:24;;;;;;;;;2.00;2.00;;;;;18.31;27.63;101143.97;2105882;27;47235;-59
2022/04/18 01:34:24;;;;;;;;;2.67;2.67;;;;;18.31;27.54;101143.13;2105310;28;47467;-59
2022/04/18 01:35:24;;;;;;;;;2.00;2.00;;;;;18.30;27.53;101144.94;2105722;28;47440;-59
2022/04/18 01:36:26;;;;;;;;;2.00;2.00;;;;;18.29;27.17;101147.66;2105249;28;47636;-58
2022/04/18 01:37:26;;;;;;;;;2.00;2.00;;;;;18.28;27.37;101144.09;2105056;28;48248;-60
2022/04/18 01:38:27;;;;;;;;;3.00;3.00;;;;;18.28;27.51;101137.84;2105161;28;48400;-58
2022/04/18 01:39:27;;;;;;;;;1.00;1.00;;;;;18.28;27.45;101140.53;2105335;28;47454;-60
2022/04/18 01:40:28;;;;;;;;;4.00;4.00;;;;;18.29;27.60;101142.28;2087044;28;47563;-59
2022/04/18 01:41:28;;;;;;;;;2.67;2.67;;;;;18.28;27.25;101137.84;2079106;28;47849;-60
2022/04/18 01:42:28;;;;;;;;;2.67;2.67;;;;;18.28;27.23;101143.22;2095942;28;47811;-60
2022/04/18 01:43:29;;;;;;;;;2.00;2.00;;;;;18.23;27.18;101136.25;2096427;28;48133;-59
2022/04/18 01:44:29;;;;;;;;;3.67;3.67;;;;;18.22;27.65;101136.34;2095890;28;46850;-59
2022/04/18 01:45:30;;;;;;;;;3.00;3.00;;;;;18.19;27.78;101140.06;2087111;28;47789;-58
2022/04/18 01:46:30;;;;;;;;;2.00;2.00;;;;;18.18;27.80;101138.31;2087193;28;47994;-59
2022/04/18 01:47:31;;;;;;;;;1.00;1.00;;;;;18.17;27.48;101136.56;2105431;28;47600;-60
2022/04/18 01:48:31;;;;;;;;;3.00;3.00;;;;;18.16;27.56;101141.97;2105215;27;48096;-59
2022/04/18 01:49:31;;;;;;;;;1.00;1.00;;;;;18.15;27.85;101137.56;2105294;28;48020;-59
2022/04/18 01:50:32;;;;;;;;;1.00;1.00;;;;;18.12;27.87;101138.56;2104888;28;45982;-58
2022/04/18 01:51:32;;;;;;;;;1.00;1.00;;;;;18.12;27.76;101135.03;2110343;27;47125;-59
2022/04/18 01:52:32;;;;;;;;;3.50;2.00;;;;;18.10;27.63;101131.53;2105244;28;48008;-56
2022/04/18 01:53:33;;;;;;;;;1.33;1.33;;;;;18.07;27.85;101135.25;2110042;27;47453;-59
2022/04/18 01:54:34;;;;;;;;;2.50;1.75;;;;;18.05;27.67;101131.75;2105139;27;47665;-58
2022/04/18 01:55:34;;;;;;;;;1.00;1.00;;;;;18.05;27.97;101133.56;2105518;28;47683;-59
2022/04/18 01:56:34;;;;;;;;;1.00;1.00;;;;;18.03;27.86;101138.13;2111415;27;47362;-57
2022/04/18 01:57:35;;;;;;;;;1.25;1.25;;;;;18.02;27.93;101136.38;2112335;27;48195;-58
2022/04/18 01:58:35;;;;;;;;;1.00;1.00;;;;;18.00;27.77;101139.13;2105175;27;47412;-58
2022/04/18 01:59:36;;;;;;;;;3.00;2.33;;;;;18.00;28.09;101139.13;2105481;27;47528;-60
2022/04/18 02:00:36;;;;;;;;;1.00;1.00;;;;;17.98;28.16;101141.03;2105086;27;48363;-60
2022/04/18 02:01:37;;;;;;;;;2.33;2.00;;;;;17.94;27.66;101134.94;2105309;27;47609;-58
2022/04/18 02:02:37;;;;;;;;;5.00;3.00;;;;;17.93;27.95;101143.06;2104984;27;48083;-58
2022/04/18 02:03:44;;;;;;;;;1.00;1.00;;;;;17.93;28.05;101130.50;2105219;28;48016;-60
2022/04/18 02:04:44;;;;;;;;;3.25;2.00;;;;;17.93;28.08;101132.31;2104930;27;47654;-57
2022/04/18 02:05:46;;;;;;;;;1.67;1.67;;;;;17.93;27.95;101132.31;2105152;27;47725;-59
2022/04/18 02:06:47;;;;;;;;;2.00;2.00;;;;;17.93;28.17;101132.31;2105037;28;48223;-59
2022/04/18 02:07:47;;;;;;;;;1.00;1.00;;;;;17.92;28.06;101131.44;2105385;27;47898;-58
2022/04/18 02:08:48;;;;;;;;;2.00;1.75;;;;;17.91;28.35;101129.72;2106252;27;47717;-58
2022/04/18 02:09:48;;;;;;;;;2.00;2.00;;;;;17.91;28.29;101123.44;2113417;27;47487;-58
2022/04/18 02:10:49;;;;;;;;;4.50;2.00;;;;;17.91;28.27;101131.50;2109155;27;47885;-59
2022/04/18 02:11:49;;;;;;;;;1.25;1.00;;;;;17.92;28.56;101128.78;2105586;28;47861;-59
2022/04/18 02:12:50;;;;;;;;;2.25;2.25;;;;;17.89;28.34;101126.19;2105102;27;48018;-60
2022/04/18 02:13:51;;;;;;;;;2.00;2.00;;;;;17.88;28.27;101126.28;2104944;27;47929;-59
2022/04/18 02:14:51;;;;;;;;;2.00;1.50;;;;;17.85;28.17;101129.97;2105238;28;47859;-58
2022/04/18 02:15:52;;;;;;;;;3.50;2.00;;;;;17.84;28.49;101136.28;2086905;28;47922;-59
2022/04/18 02:16:53;;;;;;;;;1.00;1.00;;;;;17.84;28.53;101125.53;2062746;28;46335;-59
2022/04/18 02:17:54;;;;;;;;;2.20;1.00;;;;;17.83;28.44;101126.50;2076901;28;47509;-57
2022/04/18 02:18:55;;;;;;;;;1.00;1.00;;;;;17.83;28.48;101131.84;2104901;27;48270;-59
2022/04/18 02:19:55;;;;;;;;;1.00;1.00;;;;;17.82;28.31;101124.75;2105189;28;47690;-59
2022/04/18 02:20:56;;;;;;;;;1.00;1.00;;;;;17.81;28.31;101130.19;2105373;27;47665;-58
2022/04/18 02:21:56;;;;;;;;;1.33;1.00;;;;;17.80;28.25;101128.44;2105137;27;48376;-59
2022/04/18 02:22:56;;;;;;;;;2.00;2.00;;;;;17.79;28.29;101127.56;2096351;28;47644;-59
2022/04/18 02:23:57;;;;;;;;;2.00;2.00;;;;;17.77;27.90;101126.75;2096172;28;47162;-59
2022/04/18 02:24:57;;;;;;;;;2.25;2.25;;;;;17.76;28.19;101126.81;2103168;28;47746;-57
2022/04/18 02:25:58;;;;;;;;;2.00;2.00;;;;;17.74;28.02;101128.72;2095971;28;48376;-59
2022/04/18 02:26:58;;;;;;;;;1.00;1.00;;;;;17.72;28.17;101123.41;2101240;28;48277;-59
2022/04/18 02:27:59;;;;;;;;;3.00;2.00;;;;;17.71;28.26;101116.31;2105192;28;47763;-59
2022/04/18 02:28:59;;;;;;;;;3.00;3.00;;;;;17.70;28.62;101122.63;2104796;28;47413;-59
2022/04/18 02:29:59;;;;;;;;;2.25;1.50;;;;;17.71;28.30;101121.66;2104964;27;47111;-59
2022/04/18 02:31:00;;;;;;;;;2.25;2.25;;;;;17.70;28.39;101124.44;2105085;28;47734;-59
2022/04/18 02:33:21;;;;;;;;;4.25;3.00;;;;;17.67;28.58;101128.09;2099073;28;47762;-58
2022/04/18 02:34:21;;;;;;;;;2.00;2.00;;;;;17.66;28.18;101120.97;2104850;28;47909;-59
2022/04/18 02:35:24;;;;;;;;;2.67;2.67;;;;;17.64;28.81;101121.03;2105300;28;47568;-58
2022/04/18 02:36:24;;;;;;;;;2.25;2.25;;;;;17.62;28.78;101122.91;2104485;28;47996;-59
2022/04/18 02:37:25;;;;;;;;;2.00;1.00;;;;;17.62;28.66;101120.22;2104748;28;47752;-59
2022/04/18 02:38:25;;;;;;;;;2.33;1.33;;;;;17.62;28.49;101112.19;2104611;27;47649;-59
2022/04/18 02:39:26;;;;;;;;;3.00;3.00;;;;;17.61;28.65;101112.25;2104893;28;47515;-60
2022/04/18 02:40:26;;;;;;;;;2.00;2.00;;;;;17.60;28.77;101111.38;2105059;28;47511;-59
2022/04/18 02:41:27;;;;;;;;;3.00;1.00;;;;;17.60;28.84;101115.88;2086441;28;48187;-60
2022/04/18 02:42:27;;;;;;;;;3.50;3.50;;;;;17.58;28.94;101107.91;2087182;28;47360;-57
2022/04/18 02:43:27;;;;;;;;;1.50;1.50;;;;;17.58;28.73;101110.56;2112075;27;48004;-57
2022/04/18 02:44:28;;;;;;;;;3.00;3.00;;;;;17.56;28.88;101107.09;2101618;28;48089;-59
2022/04/18 02:45:31;;;;;;;;;2.00;2.00;;;;;17.56;29.02;101106.22;2104342;28;46820;-58
2022/04/18 02:46:31;;;;;;;;;2.60;2.60;;;;;17.53;28.47;101107.25;2111316;27;47444;-59
2022/04/18 02:47:32;;;;;;;;;3.25;3.25;;;;;17.52;28.70;101108.16;2108615;27;47083;-58
2022/04/18 02:48:32;;;;;;;;;3.00;3.00;;;;;17.51;28.51;101108.22;2113194;27;47377;-58
2022/04/18 02:49:33;;;;;;;;;3.00;3.00;;;;;17.50;29.02;101109.16;2109004;27;48155;-59
2022/04/18 02:50:34;;;;;;;;;2.25;2.25;;;;;17.47;29.06;101102.13;2104731;28;47892;-59
2022/04/18 02:51:35;;;;;;;;;4.00;4.00;;;;;17.46;29.17;101102.19;2109744;27;47755;-59
2022/04/18 02:52:36;;;;;;;;;3.67;3.67;;;;;17.46;29.04;101104.88;2107471;27;47613;-58
2022/04/18 02:53:37;;;;;;;;;2.75;2.75;;;;;17.45;28.83;101103.13;2112516;27;47498;-59
2022/04/18 02:54:38;;;;;;;;;1.75;1.50;;;;;17.45;28.83;101101.31;2105230;27;47875;-59
2022/04/18 02:55:40;;;;;;;;;2.00;2.00;;;;;17.43;29.08;101107.72;2104912;28;48011;-59
2022/04/18 02:56:41;;;;;;;;;3.50;3.00;;;;;17.41;29.14;101107.78;2112188;27;47700;-58
2022/04/18 02:57:41;;;;;;;;;2.00;2.00;;;;;17.40;29.03;101099.75;2107156;27;47915;-59
2022/04/18 02:58:42;;;;;;;;;3.75;3.00;;;;;17.39;28.84;101112.31;2110505;27;47574;-59
2022/04/18 02:59:42;;;;;;;;;2.00;2.00;;;;;17.39;29.18;101106.06;2110034;27;47416;-57
2022/04/18 03:00:42;;;;;;;;;2.50;2.50;;;;;17.36;29.12;101102.59;2107584;27;47974;-58
2022/04/18 03:01:43;;;;;;;;;3.25;3.25;;;;;17.35;29.19;101106.22;2111902;27;47502;-59
2022/04/18 03:02:43;;;;;;;;;3.25;3.25;;;;;17.31;29.48;101104.63;2099527;28;47120;-59
2022/04/18 03:03:44;;;;;;;;;2.25;2.25;;;;;17.28;29.18;101110.13;2100042;28;47218;-58
2022/04/18 03:04:44;;;;;;;;;3.00;3.00;;;;;17.26;29.53;101105.72;2111913;27;47536;-59
2022/04/18 03:05:44;;;;;;;;;2.00;2.00;;;;;17.23;29.47;101104.06;2113305;27;47548;-59
2022/04/18 03:06:45;;;;;;;;;4.50;4.50;;;;;17.23;29.67;101111.25;2106089;27;48121;-60
2022/04/18 03:07:45;;;;;;;;;2.00;2.00;;;;;17.21;29.77;101110.44;2110021;27;47660;-59
2022/04/18 03:08:46;;;;;;;;;2.00;2.00;;;;;17.21;29.27;101110.44;2086924;28;47421;-59
2022/04/18 03:09:46;;;;;;;;;1.00;1.00;;;;;17.20;29.38;101111.38;2091536;28;47864;-57
2022/04/18 03:12:07;;;;;;;;;3.00;3.00;;;;;17.18;29.24;101110.56;2104218;28;47824;-57
2022/04/18 03:13:07;;;;;;;;;3.00;3.00;;;;;17.18;29.61;101105.22;2112199;27;48014;-59
2022/04/18 03:14:07;;;;;;;;;3.25;2.50;;;;;17.16;29.34;101107.97;2110794;27;47528;-59
2022/04/18 03:15:08;;;;;;;;;4.00;2.00;;;;;17.16;29.49;101110.66;2104891;28;47654;-58
2022/04/18 03:16:08;;;;;;;;;3.00;3.00;;;;;17.16;29.51;101107.09;2107582;27;47609;-59
2022/04/18 03:17:10;;;;;;;;;2.75;2.25;;;;;17.15;29.83;101110.69;2105411;27;47926;-59
2022/04/18 03:18:10;;;;;;;;;3.40;3.40;;;;;17.14;29.80;101095.53;2102902;27;47949;-60
2022/04/18 03:19:10;;;;;;;;;4.00;4.00;;;;;17.13;29.42;101099.16;2109088;27;47855;-57
2022/04/18 03:20:11;;;;;;;;;3.75;3.75;;;;;17.12;29.82;101103.66;2113349;27;48027;-62
2022/04/18 03:21:13;;;;;;;;;2.25;2.25;;;;;17.12;29.57;101100.09;2108661;27;47501;-59
2022/04/18 03:22:13;;;;;;;;;3.40;3.40;;;;;17.11;29.75;101104.59;2106745;27;47856;-60
2022/04/18 03:23:13;;;;;;;;;3.00;3.00;;;;;17.09;29.72;101098.41;2109389;27;46954;-58
2022/04/18 03:24:14;;;;;;;;;2.00;2.00;;;;;17.04;29.82;101095.94;2107678;27;47310;-59
2022/04/18 03:25:14;;;;;;;;;0.25;0.25;;;;;17.01;30.00;101104.09;2105298;27;47553;-58
2022/04/18 03:26:15;;;;;;;;;2.25;2.25;;;;;16.99;29.80;101102.41;2107061;27;47760;-59
2022/04/18 03:27:15;;;;;;;;;2.00;2.00;;;;;17.00;29.61;101101.47;2108893;27;47549;-59
2022/04/18 03:28:16;;;;;;;;;3.00;3.00;;;;;16.98;29.60;101100.69;2112798;27;47902;-58
2022/04/18 03:29:17;;;;;;;;;4.00;3.75;;;;;16.98;29.70;101098.00;2108680;27;47655;-57
2022/04/18 03:30:18;;;;;;;;;2.20;2.20;;;;;16.97;30.09;101102.50;2107085;27;47529;-58
2022/04/18 03:31:18;;;;;;;;;1.25;1.25;;;;;16.95;29.96;101107.06;2104240;28;47502;-60
2022/04/18 03:32:18;;;;;;;;;5.00;5.00;;;;;16.95;30.41;101108.84;2092943;28;47651;-57
2022/04/18 03:33:19;;;;;;;;;4.00;3.75;;;;;16.94;30.42;101105.31;2096052;28;47571;-59
2022/04/18 03:34:20;;;;;;;;;4.75;4.75;;;;;16.93;30.29;101110.75;2106813;27;48052;-58
2022/04/18 03:35:21;;;;;;;;;3.80;3.80;;;;;16.89;30.43;101103.75;2098141;28;47713;-57
2022/04/18 03:40:25;;;;;;;;;4.00;4.00;;;;;16.84;31.01;101101.25;2078244;28;47727;-59
2022/04/18 03:41:25;;;;;;;;;4.00;4.00;;;;;16.84;30.62;101109.31;2071081;28;47685;-60
2022/04/18 03:42:31;;;;;;;;;4.50;4.50;;;;;16.85;30.67;101107.50;2078545;28;47445;-59
2022/04/18 03:43:31;;;;;;;;;4.00;4.00;;;;;16.85;31.13;101105.69;2078102;28;48354;-59
2022/04/18 03:44:32;;;;;;;;;4.00;4.00;;;;;16.86;31.14;101103.88;2078691;28;47429;-60
2022/04/18 03:45:32;;;;;;;;;4.00;3.00;;;;;16.87;30.77;101103.81;2079325;28;48047;-58
2022/04/18 03:46:33;;;;;;;;;4.00;4.00;;;;;16.88;31.29;101099.31;2078880;28;47622;-59
2022/04/18 03:47:33;;;;;;;;;3.50;3.50;;;;;16.87;31.31;101103.81;2080963;28;47995;-59
2022/04/18 03:48:33;;;;;;;;;5.00;5.00;;;;;16.87;30.98;101101.13;2078277;28;47650;-59
2022/04/18 03:49:34;;;;;;;;;5.00;5.00;;;;;16.89;31.42;101098.38;2070540;28;47921;-60
2022/04/18 03:50:34;;;;;;;;;7.00;5.25;;;;;16.89;31.05;101101.94;2077309;28;45470;-59
2022/04/18 03:51:36;;;;;;;;;4.75;4.75;;;;;16.91;31.06;101099.22;2078237;28;48051;-60
2022/04/18 03:52:36;;;;;;;;;7.00;5.40;;;;;16.89;31.34;101099.25;2078444;28;47464;-59
2022/04/18 03:53:36;;;;;;;;;5.00;3.25;;;;;16.89;31.26;101093.88;2081005;28;47761;-56
2022/04/18 03:54:40;;;;;;;;;5.25;5.25;;;;;16.89;31.54;101103.75;2070349;28;47707;-59
2022/04/18 03:55:40;;;;;;;;;7.00;5.40;;;;;16.86;31.23;101095.84;2070503;28;47593;-59
2022/04/18 03:56:41;;;;;;;;;6.00;6.00;;;;;16.86;31.47;101095.84;2078517;28;47539;-58
2022/04/18 03:57:41;;;;;;;;;5.00;4.00;;;;;16.85;31.43;101091.41;2078410;28;47594;-60
2022/04/18 03:58:42;;;;;;;;;2.75;2.75;;;;;16.84;31.91;101100.38;2078719;28;47647;-59
2022/04/18 03:59:42;;;;;;;;;6.25;5.00;;;;;16.84;31.55;101100.38;2078237;28;47496;-58
2022/04/18 04:00:43;;;;;;;;;5.00;3.50;;;;;16.81;31.58;101097.84;2077934;28;47413;-58
2022/04/18 04:01:43;;;;;;;;;5.75;5.50;;;;;16.77;31.34;101095.31;2078526;28;47237;-58
2022/04/18 04:02:43;;;;;;;;;4.75;3.50;;;;;16.76;32.00;101096.19;2078372;28;48138;-58
2022/04/18 04:03:44;;;;;;;;;4.25;4.25;;;;;16.76;31.79;101096.19;2078287;28;48220;-59
2022/04/18 04:04:44;;;;;;;;;5.25;5.25;;;;;16.76;31.54;101096.19;2078592;28;47882;-60
2022/04/18 04:05:45;;;;;;;;;5.50;5.50;;;;;16.76;31.96;101098.88;2077823;28;48114;-58
2022/04/18 04:06:45;;;;;;;;;6.25;5.00;;;;;16.76;32.02;101093.53;2078323;28;47513;-59
2022/04/18 04:07:45;;;;;;;;;4.50;4.50;;;;;16.77;32.00;101111.38;2070386;28;47290;-58
2022/04/18 04:08:46;;;;;;;;;3.50;3.50;;;;;16.77;31.61;101094.44;2070402;28;48098;-59
2022/04/18 04:09:46;;;;;;;;;3.25;3.25;;;;;16.75;32.05;101097.13;2086803;28;47533;-59
2022/04/18 04:10:47;;;;;;;;;5.00;5.00;;;;;16.74;32.01;101098.06;2074511;28;48048;-59
2022/04/18 04:11:47;;;;;;;;;7.25;4.50;;;;;16.74;32.13;101098.06;2070310;28;47751;-59
2022/04/18 04:12:48;;;;;;;;;3.00;3.00;;;;;16.72;32.20;101093.72;2078039;28;47427;-59
2022/04/18 04:13:48;;;;;;;;;4.00;4.00;;;;;16.72;32.04;101091.03;2078588;28;45256;-60
2022/04/18 04:14:55;;;;;;;;;4.75;4.75;;;;;16.72;32.07;101091.03;2078349;28;47883;-59
2022/04/18 04:15:56;;;;;;;;;5.00;5.00;;;;;16.68;32.13;101090.31;2084873;28;48233;-59
2022/04/18 04:16:56;;;;;;;;;4.80;4.80;;;;;16.65;31.88;101093.09;2084966;28;48126;-59
2022/04/18 04:17:57;;;;;;;;;5.25;4.25;;;;;16.61;32.05;101088.75;2091401;28;47723;-58
2022/04/18 04:18:57;;;;;;;;;3.75;3.75;;;;;16.57;32.04;101081.78;2104219;27;48078;-59
2022/04/18 04:19:57;;;;;;;;;6.25;6.25;;;;;16.54;32.30;101087.28;2104474;28;47823;-59
2022/04/18 04:20:58;;;;;;;;;3.50;3.25;;;;;16.53;32.28;101076.63;2104438;27;47285;-58
2022/04/18 04:21:58;;;;;;;;;4.50;4.50;;;;;16.53;32.63;101085.53;2104423;27;47893;-58
2022/04/18 04:22:59;;;;;;;;;4.50;4.50;;;;;16.51;32.17;101082.03;2104424;27;47500;-60
2022/04/18 04:24:00;;;;;;;;;2.00;1.00;;;;;16.50;32.61;101080.28;2104255;27;47986;-59
2022/04/18 04:25:00;;;;;;;;;4.00;4.00;;;;;16.50;32.76;101082.97;2104229;27;47852;-59
2022/04/18 04:26:01;;;;;;;;;4.00;4.00;;;;;16.49;32.82;101082.09;2104351;28;47793;-59
2022/04/18 04:27:02;;;;;;;;;3.25;3.25;;;;;16.48;32.80;101079.47;2104395;27;47380;-59
2022/04/18 04:28:03;;;;;;;;;6.20;6.20;;;;;16.46;32.67;101082.22;2104664;27;47359;-59
2022/04/18 04:29:03;;;;;;;;;7.00;5.25;;;;;16.44;32.75;101086.78;2105728;28;48151;-59
2022/04/18 04:30:04;;;;;;;;;3.00;3.00;;;;;16.43;32.56;101086.84;2104135;27;47349;-58
2022/04/18 04:31:04;;;;;;;;;5.00;5.00;;;;;16.41;32.71;101086.03;2105898;28;47463;-58
2022/04/18 04:32:05;;;;;;;;;6.00;5.00;;;;;16.40;32.87;101081.63;2106162;28;48379;-58
2022/04/18 04:33:06;;;;;;;;;7.00;5.00;;;;;16.39;32.90;101086.09;2105799;28;47862;-57
2022/04/18 04:34:06;;;;;;;;;4.25;4.25;;;;;16.40;32.77;101081.63;2105600;28;47236;-59
2022/04/18 04:35:07;;;;;;;;;5.00;5.00;;;;;16.39;32.96;101087.91;2106137;28;46719;-60
2022/04/18 04:36:07;;;;;;;;;8.00;8.00;;;;;16.38;33.07;101075.41;2105926;28;46587;-59
2022/04/18 04:37:08;;;;;;;;;5.25;5.25;;;;;16.39;33.29;101087.91;2087486;28;47448;-59
2022/04/18 04:38:08;;;;;;;;;6.00;6.00;;;;;16.37;32.93;101079.03;2088213;28;47837;-58
2022/04/18 04:39:09;;;;;;;;;4.25;4.25;;;;;16.36;32.91;101082.66;2105815;28;47581;-59
2022/04/18 04:40:11;;;;;;;;;4.75;4.75;;;;;16.35;33.26;101086.25;2106102;27;47473;-60
2022/04/18 04:41:12;;;;;;;;;4.60;4.60;;;;;16.33;32.99;101088.13;2105720;27;47727;-59
2022/04/18 04:42:14;;;;;;;;;5.75;5.75;;;;;16.32;33.47;101097.09;2105502;28;47103;-59
2022/04/18 04:43:15;;;;;;;;;5.00;5.00;;;;;16.31;33.20;101088.19;2105907;28;47549;-59
2022/04/18 04:44:15;;;;;;;;;5.00;5.00;;;;;16.30;33.31;101094.50;2106087;28;47732;-59
2022/04/18 04:45:16;;;;;;;;;6.00;6.00;;;;;16.28;33.11;101091.00;2105641;28;47402;-61
2022/04/18 04:46:16;;;;;;;;;4.50;4.50;;;;;16.26;33.04;101100.00;2105436;28;47844;-58
2022/04/18 04:47:16;;;;;;;;;5.75;5.75;;;;;16.22;33.36;101093.91;2105686;28;47305;-59
2022/04/18 04:48:17;;;;;;;;;5.25;5.25;;;;;16.19;33.07;101094.03;2105855;28;47703;-57
2022/04/18 04:49:17;;;;;;;;;5.25;5.25;;;;;16.16;32.77;101094.16;2105475;28;47597;-60
2022/04/18 04:50:18;;;;;;;;;5.75;5.00;;;;;16.14;33.03;101091.53;2087517;28;48103;-60
2022/04/18 04:51:18;;;;;;;;;4.75;4.50;;;;;16.12;33.36;101095.19;2080017;28;47296;-58
2022/04/18 04:52:22;;;;;;;;;3.50;3.50;;;;;16.13;33.24;101099.59;2100490;28;47508;-58
2022/04/18 04:53:22;;;;;;;;;5.00;5.00;;;;;16.12;33.18;101095.19;2105616;28;47455;-59